sensor_id;sensor_type;location;lat;lon;timestamp;pressure;altitude;pressure_sealevel;temperature;humidity
28310;BME280;15571;50.974;13.936;2023-07-16T00:22:59;99483.09;;;23.33;100.00
28310;BME280;15571;50.974;13.936;2023-07-16T00:26:00;99506.47;;;23.16;100.00
28310;BME280;15571;50.974;13.936;2023-07-16T00:29:02;99533.81;;;23.07;100.00
28310;BME280;15571;50.974;13.936;2023-07-16T00:32:04;99589.44;;;23.13;100.00
28310;BME280;15571;50.974;13.936;2023-07-16T00:35:06;99690.50;;;23.20;100.00
28310;BME280;15571;50.974;13.936;2023-07-16T00:38:12;99695.06;;;23.17;100.00
28310;BME280;15571;50.974;13.936;2023-07-16T00:41:14;99666.50;;;23.20;100.00
28310;BME280;15571;50.974;13.936;2023-07-16T00:44:16;99723.50;;;23.19;100.00
28310;BME280;15571;50.974;13.936;2023-07-16T00:47:21;99728.88;;;23.31;100.00
28310;BME280;15571;50.974;13.936;2023-07-16T00:50:24;99718.31;;;23.30;100.00
28310;BME280;15571;50.974;13.936;2023-07-16T00:53:27;99729.13;;;23.41;100.00
28310;BME280;15571;50.974;13.936;2023-07-16T00:56:30;99731.13;;;23.38;100.00
28310;BME280;15571;50.974;13.936;2023-07-16T00:59:32;99731.91;;;23.53;100.00
28310;BME280;15571;50.974;13.936;2023-07-16T01:02:37;99729.59;;;23.61;100.00
28310;BME280;15571;50.974;13.936;2023-07-16T01:05:43;99755.06;;;23.80;100.00
28310;BME280;15571;50.974;13.936;2023-07-16T01:08:49;99738.28;;;23.77;100.00
28310;BME280;15571;50.974;13.936;2023-07-16T01:11:52;99742.34;;;23.70;100.00
28310;BME280;15571;50.974;13.936;2023-07-16T01:14:55;99744.44;;;23.65;100.00
28310;BME280;15571;50.974;13.936;2023-07-16T01:17:57;99759.31;;;23.69;100.00
28310;BME280;15571;50.974;13.936;2023-07-16T01:20:59;99743.91;;;23.60;100.00
28310;BME280;15571;50.974;13.936;2023-07-16T01:24:13;99733.97;;;23.62;100.00
28310;BME280;15571;50.974;13.936;2023-07-16T01:27:29;99727.03;;;23.59;100.00
28310;BME280;15571;50.974;13.936;2023-07-16T01:30:37;99710.34;;;23.56;100.00
28310;BME280;15571;50.974;13.936;2023-07-16T01:33:40;99709.28;;;23.58;100.00
28310;BME280;15571;50.974;13.936;2023-07-16T01:36:47;99695.84;;;23.60;100.00
28310;BME280;15571;50.974;13.936;2023-07-16T01:39:55;99671.03;;;23.58;100.00
28310;BME280;15571;50.974;13.936;2023-07-16T01:42:58;99673.25;;;23.51;100.00
28310;BME280;15571;50.974;13.936;2023-07-16T01:46:01;99679.44;;;23.52;100.00
28310;BME280;15571;50.974;13.936;2023-07-16T01:49:03;99689.59;;;23.46;100.00
28310;BME280;15571;50.974;13.936;2023-07-16T01:52:06;99683.31;;;23.47;100.00
28310;BME280;15571;50.974;13.936;2023-07-16T01:55:10;99677.66;;;23.65;100.00
28310;BME280;15571;50.974;13.936;2023-07-16T01:58:12;99689.41;;;23.50;100.00
28310;BME280;15571;50.974;13.936;2023-07-16T02:01:15;99687.13;;;23.43;100.00
28310;BME280;15571;50.974;13.936;2023-07-16T02:04:17;99673.25;;;23.51;100.00
28310;BME280;15571;50.974;13.936;2023-07-16T02:07:19;99694.31;;;23.43;100.00
28310;BME280;15571;50.974;13.936;2023-07-16T02:10:21;99718.66;;;23.51;100.00
28310;BME280;15571;50.974;13.936;2023-07-16T02:13:23;99706.16;;;23.52;100.00
28310;BME280;15571;50.974;13.936;2023-07-16T02:16:31;99714.41;;;23.49;100.00
28310;BME280;15571;50.974;13.936;2023-07-16T02:19:35;99725.28;;;23.45;100.00
28310;BME280;15571;50.974;13.936;2023-07-16T02:22:37;99734.69;;;23.38;100.00
28310;BME280;15571;50.974;13.936;2023-07-16T02:25:39;99748.38;;;23.46;100.00
28310;BME280;15571;50.974;13.936;2023-07-16T02:28:45;99765.34;;;23.45;100.00
28310;BME280;15571;50.974;13.936;2023-07-16T02:31:51;99768.03;;;23.45;100.00
28310;BME280;15571;50.974;13.936;2023-07-16T02:34:56;99761.13;;;23.28;100.00
28310;BME280;15571;50.974;13.936;2023-07-16T02:37:59;99775.94;;;23.20;100.00
28310;BME280;15571;50.974;13.936;2023-07-16T02:41:01;99789.59;;;23.42;100.00
28310;BME280;15571;50.974;13.936;2023-07-16T02:44:04;99787.09;;;23.12;100.00
28310;BME280;15571;50.974;13.936;2023-07-16T02:47:07;99812.06;;;23.11;100.00
28310;BME280;15571;50.974;13.936;2023-07-16T02:50:09;99823.91;;;23.21;100.00
28310;BME280;15571;50.974;13.936;2023-07-16T02:53:11;99830.47;;;23.30;100.00
28310;BME280;15571;50.974;13.936;2023-07-16T02:56:13;99857.47;;;23.25;100.00
28310;BME280;15571;50.974;13.936;2023-07-16T02:59:17;99866.03;;;23.30;100.00
28310;BME280;15571;50.974;13.936;2023-07-16T03:02:20;99896.16;;;23.33;100.00
28310;BME280;15571;50.974;13.936;2023-07-16T03:05:27;99910.94;;;23.24;100.00
28310;BME280;15571;50.974;13.936;2023-07-16T03:08:34;99933.81;;;23.13;100.00
28310;BME280;15571;50.974;13.936;2023-07-16T03:11:38;99941.81;;;23.13;100.00
28310;BME280;15571;50.974;13.936;2023-07-16T03:14:40;99963.78;;;23.19;100.00
28310;BME280;15571;50.974;13.936;2023-07-16T03:17:43;99956.97;;;22.98;100.00
28310;BME280;15571;50.974;13.936;2023-07-16T03:20:46;99955.38;;;22.96;100.00
28310;BME280;15571;50.974;13.936;2023-07-16T03:23:48;99954.00;;;22.74;100.00
28310;BME280;15571;50.974;13.936;2023-07-16T03:26:49;99981.84;;;22.70;100.00
28310;BME280;15571;50.974;13.936;2023-07-16T03:29:52;99994.06;;;22.58;100.00
28310;BME280;15571;50.974;13.936;2023-07-16T03:32:59;99985.59;;;22.51;100.00
28310;BME280;15571;50.974;13.936;2023-07-16T03:36:02;99981.81;;;22.39;100.00
28310;BME280;15571;50.974;13.936;2023-07-16T03:39:07;99960.97;;;22.16;100.00
28310;BME280;15571;50.974;13.936;2023-07-16T03:42:08;99961.41;;;22.08;100.00
28310;BME280;15571;50.974;13.936;2023-07-16T03:45:10;99940.47;;;22.02;100.00
28310;BME280;15571;50.974;13.936;2023-07-16T03:48:14;99957.81;;;22.09;100.00
28310;BME280;15571;50.974;13.936;2023-07-16T03:51:16;99977.63;;;21.73;100.00
28310;BME280;15571;50.974;13.936;2023-07-16T03:54:18;99987.59;;;21.69;100.00
28310;BME280;15571;50.974;13.936;2023-07-16T03:57:20;99966.91;;;22.05;100.00
28310;BME280;15571;50.974;13.936;2023-07-16T04:00:26;99958.78;;;21.76;100.00
28310;BME280;15571;50.974;13.936;2023-07-16T04:03:29;99952.69;;;21.74;100.00
28310;BME280;15571;50.974;13.936;2023-07-16T04:06:31;99936.34;;;21.80;100.00
28310;BME280;15571;50.974;13.936;2023-07-16T04:09:32;99936.72;;;21.74;100.00
28310;BME280;15571;50.974;13.936;2023-07-16T04:12:37;99938.94;;;21.66;100.00
28310;BME280;15571;50.974;13.936;2023-07-16T04:15:39;99949.69;;;21.64;100.00
28310;BME280;15571;50.974;13.936;2023-07-16T04:18:43;99937.91;;;21.68;100.00
28310;BME280;15571;50.974;13.936;2023-07-16T04:21:46;99926.22;;;21.71;100.00
28310;BME280;15571;50.974;13.936;2023-07-16T04:24:51;99966.97;;;21.73;100.00
28310;BME280;15571;50.974;13.936;2023-07-16T04:27:54;99971.16;;;21.77;100.00
28310;BME280;15571;50.974;13.936;2023-07-16T04:30:56;99957.25;;;21.72;100.00
28310;BME280;15571;50.974;13.936;2023-07-16T04:33:59;99953.72;;;21.71;100.00
28310;BME280;15571;50.974;13.936;2023-07-16T04:37:01;99956.47;;;21.70;100.00
28310;BME280;15571;50.974;13.936;2023-07-16T04:40:03;99957.41;;;21.69;100.00
28310;BME280;15571;50.974;13.936;2023-07-16T04:43:09;99955.78;;;21.82;100.00
28310;BME280;15571;50.974;13.936;2023-07-16T04:46:11;99960.31;;;21.80;100.00
28310;BME280;15571;50.974;13.936;2023-07-16T04:49:14;99958.72;;;21.77;100.00
28310;BME280;15571;50.974;13.936;2023-07-16T04:52:19;99944.44;;;21.79;100.00
28310;BME280;15571;50.974;13.936;2023-07-16T04:55:21;99932.22;;;21.74;100.00
28310;BME280;15571;50.974;13.936;2023-07-16T04:58:29;99942.44;;;21.98;100.00
28310;BME280;15571;50.974;13.936;2023-07-16T05:01:30;99948.97;;;21.92;100.00
28310;BME280;15571;50.974;13.936;2023-07-16T05:04:34;99959.28;;;21.99;100.00
28310;BME280;15571;50.974;13.936;2023-07-16T05:07:36;99965.91;;;21.91;100.00
28310;BME280;15571;50.974;13.936;2023-07-16T05:10:38;99948.03;;;21.94;100.00
28310;BME280;15571;50.974;13.936;2023-07-16T05:13:40;99944.06;;;22.01;100.00
28310;BME280;15571;50.974;13.936;2023-07-16T05:16:41;99942.34;;;22.00;100.00
28310;BME280;15571;50.974;13.936;2023-07-16T05:19:45;99934.78;;;21.92;100.00
28310;BME280;15571;50.974;13.936;2023-07-16T05:22:46;99921.50;;;22.22;100.00
28310;BME280;15571;50.974;13.936;2023-07-16T05:25:48;99905.00;;;22.16;100.00
28310;BME280;15571;50.974;13.936;2023-07-16T05:28:50;99867.56;;;22.17;100.00
28310;BME280;15571;50.974;13.936;2023-07-16T05:31:53;99869.88;;;21.93;100.00
28310;BME280;15571;50.974;13.936;2023-07-16T05:34:56;99885.59;;;21.67;100.00
28310;BME280;15571;50.974;13.936;2023-07-16T05:37:59;99894.59;;;21.49;100.00
28310;BME280;15571;50.974;13.936;2023-07-16T05:41:02;99895.97;;;21.56;100.00
28310;BME280;15571;50.974;13.936;2023-07-16T05:44:04;99900.59;;;21.52;100.00
28310;BME280;15571;50.974;13.936;2023-07-16T05:47:05;99905.94;;;21.52;100.00
28310;BME280;15571;50.974;13.936;2023-07-16T05:50:10;99915.22;;;21.61;100.00
28310;BME280;15571;50.974;13.936;2023-07-16T05:53:12;99936.34;;;21.64;100.00
28310;BME280;15571;50.974;13.936;2023-07-16T05:56:15;99941.69;;;21.64;100.00
28310;BME280;15571;50.974;13.936;2023-07-16T05:59:17;99934.63;;;21.79;100.00
28310;BME280;15571;50.974;13.936;2023-07-16T06:02:19;99947.25;;;21.91;100.00
28310;BME280;15571;50.974;13.936;2023-07-16T06:05:25;99956.63;;;21.99;100.00
28310;BME280;15571;50.974;13.936;2023-07-16T06:08:27;99947.47;;;22.19;100.00
28310;BME280;15571;50.974;13.936;2023-07-16T06:11:28;99955.03;;;22.11;100.00
28310;BME280;15571;50.974;13.936;2023-07-16T06:14:30;99961.88;;;22.47;100.00
28310;BME280;15571;50.974;13.936;2023-07-16T06:17:32;99954.63;;;22.49;100.00
28310;BME280;15571;50.974;13.936;2023-07-16T06:20:35;99940.47;;;22.63;100.00
28310;BME280;15571;50.974;13.936;2023-07-16T06:23:37;99946.88;;;22.44;100.00
28310;BME280;15571;50.974;13.936;2023-07-16T06:26:39;99959.53;;;22.71;100.00
28310;BME280;15571;50.974;13.936;2023-07-16T06:29:41;99978.41;;;22.68;100.00
28310;BME280;15571;50.974;13.936;2023-07-16T06:32:43;100037.50;;;22.14;100.00
28310;BME280;15571;50.974;13.936;2023-07-16T06:35:51;100040.25;;;22.12;100.00
28310;BME280;15571;50.974;13.936;2023-07-16T06:38:52;100032.06;;;22.47;100.00
28310;BME280;15571;50.974;13.936;2023-07-16T06:41:54;100013.75;;;22.72;100.00
28310;BME280;15571;50.974;13.936;2023-07-16T06:44:56;100009.84;;;22.77;100.00
28310;BME280;15571;50.974;13.936;2023-07-16T06:47:58;99999.41;;;23.03;100.00
28310;BME280;15571;50.974;13.936;2023-07-16T06:51:01;99992.09;;;23.07;100.00
28310;BME280;15571;50.974;13.936;2023-07-16T06:54:03;100004.22;;;23.27;100.00
28310;BME280;15571;50.974;13.936;2023-07-16T06:57:06;99998.03;;;23.55;100.00
28310;BME280;15571;50.974;13.936;2023-07-16T07:00:08;99997.91;;;23.57;100.00
28310;BME280;15571;50.974;13.936;2023-07-16T07:03:12;99996.41;;;23.38;100.00
28310;BME280;15571;50.974;13.936;2023-07-16T07:06:15;99996.97;;;23.29;100.00
28310;BME280;15571;50.974;13.936;2023-07-16T07:09:17;100013.28;;;23.24;100.00
28310;BME280;15571;50.974;13.936;2023-07-16T07:12:18;100006.53;;;23.19;100.00
28310;BME280;15571;50.974;13.936;2023-07-16T07:15:20;100019.72;;;23.06;100.00
28310;BME280;15571;50.974;13.936;2023-07-16T07:18:22;100029.16;;;22.97;100.00
28310;BME280;15571;50.974;13.936;2023-07-16T07:21:28;100022.13;;;23.10;100.00
28310;BME280;15571;50.974;13.936;2023-07-16T07:24:30;100024.25;;;23.20;100.00
28310;BME280;15571;50.974;13.936;2023-07-16T07:27:34;100028.06;;;23.44;100.00
28310;BME280;15571;50.974;13.936;2023-07-16T07:30:37;100036.25;;;23.56;100.00
28310;BME280;15571;50.974;13.936;2023-07-16T07:33:39;100008.00;;;23.81;100.00
28310;BME280;15571;50.974;13.936;2023-07-16T07:36:43;100001.84;;;23.93;100.00
28310;BME280;15571;50.974;13.936;2023-07-16T07:39:49;100004.28;;;24.11;100.00
28310;BME280;15571;50.974;13.936;2023-07-16T07:42:54;99996.38;;;24.09;100.00
28310;BME280;15571;50.974;13.936;2023-07-16T07:46:01;100006.91;;;24.25;100.00
28310;BME280;15571;50.974;13.936;2023-07-16T07:49:03;100010.19;;;24.43;100.00
28310;BME280;15571;50.974;13.936;2023-07-16T07:52:09;99998.50;;;24.71;100.00
28310;BME280;15571;50.974;13.936;2023-07-16T07:55:11;99991.88;;;25.16;100.00
28310;BME280;15571;50.974;13.936;2023-07-16T07:58:16;99978.16;;;25.33;100.00
28310;BME280;15571;50.974;13.936;2023-07-16T08:01:21;99984.59;;;25.44;100.00
28310;BME280;15571;50.974;13.936;2023-07-16T08:04:23;99965.47;;;25.61;100.00
28310;BME280;15571;50.974;13.936;2023-07-16T08:07:26;99958.59;;;25.57;100.00
28310;BME280;15571;50.974;13.936;2023-07-16T08:10:28;99973.03;;;25.68;100.00
28310;BME280;15571;50.974;13.936;2023-07-16T08:13:29;99980.41;;;25.90;100.00
28310;BME280;15571;50.974;13.936;2023-07-16T08:16:37;99964.47;;;26.00;100.00
28310;BME280;15571;50.974;13.936;2023-07-16T08:19:39;99967.81;;;25.90;100.00
28310;BME280;15571;50.974;13.936;2023-07-16T08:22:45;99975.19;;;26.00;100.00
28310;BME280;15571;50.974;13.936;2023-07-16T08:25:47;99977.28;;;26.20;100.00
28310;BME280;15571;50.974;13.936;2023-07-16T08:28:52;99988.75;;;26.22;100.00
28310;BME280;15571;50.974;13.936;2023-07-16T08:31:56;99996.38;;;26.40;100.00
28310;BME280;15571;50.974;13.936;2023-07-16T08:35:02;99992.19;;;26.36;100.00
28310;BME280;15571;50.974;13.936;2023-07-16T08:38:05;100005.66;;;26.47;100.00
28310;BME280;15571;50.974;13.936;2023-07-16T08:41:10;100003.81;;;26.72;100.00
28310;BME280;15571;50.974;13.936;2023-07-16T08:44:14;99999.22;;;26.85;100.00
28310;BME280;15571;50.974;13.936;2023-07-16T08:47:16;99993.75;;;26.98;100.00
28310;BME280;15571;50.974;13.936;2023-07-16T08:50:18;99992.78;;;27.11;100.00
28310;BME280;15571;50.974;13.936;2023-07-16T08:53:22;99992.19;;;27.30;100.00
28310;BME280;15571;50.974;13.936;2023-07-16T08:56:24;100006.94;;;27.13;100.00
28310;BME280;15571;50.974;13.936;2023-07-16T08:59:29;99999.88;;;27.23;100.00
28310;BME280;15571;50.974;13.936;2023-07-16T09:02:31;100006.00;;;27.25;100.00
28310;BME280;15571;50.974;13.936;2023-07-16T09:05:33;99993.88;;;27.08;100.00
28310;BME280;15571;50.974;13.936;2023-07-16T09:08:37;99990.91;;;26.77;100.00
28310;BME280;15571;50.974;13.936;2023-07-16T09:11:45;100003.63;;;26.62;100.00
28310;BME280;15571;50.974;13.936;2023-07-16T09:14:48;100005.22;;;26.65;100.00
28310;BME280;15571;50.974;13.936;2023-07-16T09:17:53;100016.66;;;26.55;100.00
28310;BME280;15571;50.974;13.936;2023-07-16T09:20:58;100015.69;;;26.56;100.00
28310;BME280;15571;50.974;13.936;2023-07-16T09:24:07;100015.84;;;26.91;100.00
28310;BME280;15571;50.974;13.936;2023-07-16T09:27:11;100023.28;;;27.10;100.00
28310;BME280;15571;50.974;13.936;2023-07-16T09:30:14;100015.25;;;27.21;100.00
28310;BME280;15571;50.974;13.936;2023-07-16T09:33:20;100001.81;;;27.10;100.00
28310;BME280;15571;50.974;13.936;2023-07-16T09:36:23;100011.59;;;27.22;100.00
28310;BME280;15571;50.974;13.936;2023-07-16T09:39:26;100012.66;;;26.97;100.00
28310;BME280;15571;50.974;13.936;2023-07-16T09:42:33;100019.97;;;26.95;100.00
28310;BME280;15571;50.974;13.936;2023-07-16T09:45:39;100022.19;;;26.90;100.00
28310;BME280;15571;50.974;13.936;2023-07-16T09:48:43;100015.09;;;26.88;100.00
28310;BME280;15571;50.974;13.936;2023-07-16T09:53:08;100027.59;;;27.12;100.00
28310;BME280;15571;50.974;13.936;2023-07-16T09:56:47;100035.16;;;27.07;100.00
28310;BME280;15571;50.974;13.936;2023-07-16T10:03:32;100026.38;;;27.28;100.00
28310;BME280;15571;50.974;13.936;2023-07-16T10:10:38;100025.19;;;27.43;100.00
28310;BME280;15571;50.974;13.936;2023-07-16T10:13:44;100022.38;;;27.45;100.00
28310;BME280;15571;50.974;13.936;2023-07-16T10:17:06;100033.25;;;27.55;100.00
28310;BME280;15571;50.974;13.936;2023-07-16T10:20:14;100032.63;;;27.74;100.00
28310;BME280;15571;50.974;13.936;2023-07-16T10:23:18;100041.75;;;27.83;100.00
28310;BME280;15571;50.974;13.936;2023-07-16T10:26:25;100027.81;;;28.00;100.00
28310;BME280;15571;50.974;13.936;2023-07-16T10:29:32;100025.97;;;28.12;98.53
28310;BME280;15571;50.974;13.936;2023-07-16T10:32:40;100031.97;;;27.93;89.87
28310;BME280;15571;50.974;13.936;2023-07-16T10:35:47;100029.78;;;27.98;91.03
28310;BME280;15571;50.974;13.936;2023-07-16T10:38:49;100039.13;;;27.71;91.20
28310;BME280;15571;50.974;13.936;2023-07-16T10:41:53;100047.19;;;27.60;90.94
28310;BME280;15571;50.974;13.936;2023-07-16T10:44:59;100044.25;;;27.52;93.90
28310;BME280;15571;50.974;13.936;2023-07-16T10:48:04;100033.59;;;27.16;90.94
28310;BME280;15571;50.974;13.936;2023-07-16T10:51:06;100039.78;;;27.16;92.30
28310;BME280;15571;50.974;13.936;2023-07-16T10:54:11;100038.56;;;27.09;91.64
28310;BME280;15571;50.974;13.936;2023-07-16T10:57:14;100041.47;;;26.83;85.21
28310;BME280;15571;50.974;13.936;2023-07-16T11:00:18;100038.66;;;26.85;87.48
28310;BME280;15571;50.974;13.936;2023-07-16T11:03:20;100035.34;;;26.81;91.11
28310;BME280;15571;50.974;13.936;2023-07-16T11:06:22;100032.38;;;26.73;85.80
28310;BME280;15571;50.974;13.936;2023-07-16T11:09:23;100029.91;;;26.70;91.64
28310;BME280;15571;50.974;13.936;2023-07-16T11:12:25;100032.66;;;26.81;91.82
28310;BME280;15571;50.974;13.936;2023-07-16T11:15:32;100034.38;;;26.82;86.05
28310;BME280;15571;50.974;13.936;2023-07-16T11:18:39;100034.41;;;26.58;89.03
28310;BME280;15571;50.974;13.936;2023-07-16T11:21:44;100035.41;;;26.68;90.75
28310;BME280;15571;50.974;13.936;2023-07-16T11:24:47;100024.66;;;26.68;92.70
28310;BME280;15571;50.974;13.936;2023-07-16T11:27:54;100017.56;;;27.03;89.87
28310;BME280;15571;50.974;13.936;2023-07-16T11:30:58;100023.19;;;27.00;87.97
28310;BME280;15571;50.974;13.936;2023-07-16T11:34:00;100030.75;;;27.17;91.35
28310;BME280;15571;50.974;13.936;2023-07-16T11:37:08;100031.44;;;27.44;90.76
28310;BME280;15571;50.974;13.936;2023-07-16T11:40:14;100031.28;;;27.57;82.21
28310;BME280;15571;50.974;13.936;2023-07-16T11:43:16;100031.16;;;27.70;80.94
28310;BME280;15571;50.974;13.936;2023-07-16T11:46:22;100022.00;;;27.72;77.93
28310;BME280;15571;50.974;13.936;2023-07-16T11:49:24;100014.88;;;27.83;78.72
28310;BME280;15571;50.974;13.936;2023-07-16T11:52:26;100015.34;;;27.99;82.91
28310;BME280;15571;50.974;13.936;2023-07-16T11:55:32;100018.13;;;28.20;80.09
28310;BME280;15571;50.974;13.936;2023-07-16T11:58:43;100013.59;;;28.21;77.14
28310;BME280;15571;50.974;13.936;2023-07-16T12:01:46;100004.28;;;28.25;80.38
28310;BME280;15571;50.974;13.936;2023-07-16T12:04:48;100008.69;;;28.26;82.27
28310;BME280;15571;50.974;13.936;2023-07-16T12:07:50;100003.66;;;28.54;78.08
28310;BME280;15571;50.974;13.936;2023-07-16T12:10:52;99999.56;;;28.71;75.48
28310;BME280;15571;50.974;13.936;2023-07-16T12:13:54;100008.72;;;28.80;77.68
28310;BME280;15571;50.974;13.936;2023-07-16T12:16:58;100006.41;;;28.75;77.98
28310;BME280;15571;50.974;13.936;2023-07-16T12:20:03;100001.31;;;28.61;78.19
28310;BME280;15571;50.974;13.936;2023-07-16T12:23:04;99998.41;;;28.52;81.86
28310;BME280;15571;50.974;13.936;2023-07-16T12:26:08;100000.53;;;28.49;83.55
28310;BME280;15571;50.974;13.936;2023-07-16T12:29:10;100004.00;;;28.39;84.17
28310;BME280;15571;50.974;13.936;2023-07-16T12:32:18;100001.50;;;28.48;83.03
28310;BME280;15571;50.974;13.936;2023-07-16T12:35:29;99999.66;;;28.48;77.96
28310;BME280;15571;50.974;13.936;2023-07-16T12:38:37;99999.06;;;28.45;78.79
28310;BME280;15571;50.974;13.936;2023-07-16T12:41:39;99986.06;;;28.50;74.27
28310;BME280;15571;50.974;13.936;2023-07-16T12:44:41;99985.97;;;28.72;69.15
28310;BME280;15571;50.974;13.936;2023-07-16T12:47:44;99994.06;;;28.61;73.23
28310;BME280;15571;50.974;13.936;2023-07-16T12:50:46;99987.25;;;28.57;75.09
28310;BME280;15571;50.974;13.936;2023-07-16T12:53:48;99970.75;;;28.50;78.90
28310;BME280;15571;50.974;13.936;2023-07-16T12:56:51;99982.31;;;28.41;78.12
28310;BME280;15571;50.974;13.936;2023-07-16T12:59:52;99993.66;;;28.45;78.95
28310;BME280;15571;50.974;13.936;2023-07-16T13:02:56;99995.38;;;28.46;81.58
28310;BME280;15571;50.974;13.936;2023-07-16T13:05:58;99993.81;;;28.64;73.75
28310;BME280;15571;50.974;13.936;2023-07-16T13:09:07;99994.59;;;28.55;71.56
28310;BME280;15571;50.974;13.936;2023-07-16T13:12:10;99988.47;;;28.53;75.12
28310;BME280;15571;50.974;13.936;2023-07-16T13:15:13;99982.47;;;28.61;67.48
28310;BME280;15571;50.974;13.936;2023-07-16T13:18:18;99980.69;;;28.50;71.38
28310;BME280;15571;50.974;13.936;2023-07-16T13:21:20;99980.25;;;28.33;71.21
28310;BME280;15571;50.974;13.936;2023-07-16T13:24:22;99979.06;;;28.26;71.33
28310;BME280;15571;50.974;13.936;2023-07-16T13:27:27;99986.94;;;28.18;74.86
28310;BME280;15571;50.974;13.936;2023-07-16T13:30:29;99987.31;;;28.13;72.87
28310;BME280;15571;50.974;13.936;2023-07-16T13:33:33;99983.16;;;28.09;73.51
28310;BME280;15571;50.974;13.936;2023-07-16T13:36:35;99982.75;;;28.25;70.65
28310;BME280;15571;50.974;13.936;2023-07-16T13:39:40;99978.28;;;28.14;71.14
28310;BME280;15571;50.974;13.936;2023-07-16T13:42:44;99982.41;;;28.18;73.30
28310;BME280;15571;50.974;13.936;2023-07-16T13:45:45;99978.81;;;28.29;69.03
28310;BME280;15571;50.974;13.936;2023-07-16T13:48:53;99982.84;;;28.35;70.21
28310;BME280;15571;50.974;13.936;2023-07-16T13:51:56;99990.00;;;28.46;64.18
28310;BME280;15571;50.974;13.936;2023-07-16T13:54:58;99981.91;;;28.67;68.95
28310;BME280;15571;50.974;13.936;2023-07-16T13:58:00;99984.09;;;28.94;66.84
28310;BME280;15571;50.974;13.936;2023-07-16T14:01:03;99974.81;;;29.08;65.00
28310;BME280;15571;50.974;13.936;2023-07-16T14:04:09;99985.00;;;29.04;66.14
28310;BME280;15571;50.974;13.936;2023-07-16T14:07:11;99971.47;;;29.26;61.33
28310;BME280;15571;50.974;13.936;2023-07-16T14:10:13;99969.84;;;29.03;62.90
28310;BME280;15571;50.974;13.936;2023-07-16T14:13:15;99970.97;;;29.32;66.90
28310;BME280;15571;50.974;13.936;2023-07-16T14:16:17;99968.59;;;29.39;62.14
28310;BME280;15571;50.974;13.936;2023-07-16T14:19:20;99962.00;;;29.62;61.29
28310;BME280;15571;50.974;13.936;2023-07-16T14:22:22;99970.00;;;29.33;60.54
28310;BME280;15571;50.974;13.936;2023-07-16T14:25:30;99963.81;;;29.21;61.20
28310;BME280;15571;50.974;13.936;2023-07-16T14:28:32;99961.84;;;29.23;61.47
28310;BME280;15571;50.974;13.936;2023-07-16T14:31:34;99974.16;;;29.16;63.03
28310;BME280;15571;50.974;13.936;2023-07-16T14:34:37;99971.13;;;29.09;62.57
28310;BME280;15571;50.974;13.936;2023-07-16T14:37:39;99962.31;;;28.97;62.08
28310;BME280;15571;50.974;13.936;2023-07-16T14:40:44;99963.44;;;28.95;62.20
28310;BME280;15571;50.974;13.936;2023-07-16T14:43:50;99954.47;;;28.94;68.66
28310;BME280;15571;50.974;13.936;2023-07-16T14:46:57;99955.13;;;28.86;68.43
28310;BME280;15571;50.974;13.936;2023-07-16T14:50:01;99960.84;;;28.93;67.71
28310;BME280;15571;50.974;13.936;2023-07-16T14:53:04;99957.25;;;28.83;63.38
28310;BME280;15571;50.974;13.936;2023-07-16T14:56:06;99956.59;;;28.91;65.15
28310;BME280;15571;50.974;13.936;2023-07-16T14:59:07;99948.34;;;28.92;64.45
28310;BME280;15571;50.974;13.936;2023-07-16T15:02:10;99947.03;;;29.08;67.53
28310;BME280;15571;50.974;13.936;2023-07-16T15:05:14;99945.91;;;29.10;64.38
28310;BME280;15571;50.974;13.936;2023-07-16T15:08:20;99941.44;;;29.30;61.29
28310;BME280;15571;50.974;13.936;2023-07-16T15:11:21;99956.22;;;29.36;63.79
28310;BME280;15571;50.974;13.936;2023-07-16T15:14:23;99952.19;;;29.20;62.50
28310;BME280;15571;50.974;13.936;2023-07-16T15:17:25;99940.53;;;29.20;61.71
28310;BME280;15571;50.974;13.936;2023-07-16T15:20:33;99947.44;;;29.03;63.11
28310;BME280;15571;50.974;13.936;2023-07-16T15:23:35;99945.41;;;28.95;65.59
28310;BME280;15571;50.974;13.936;2023-07-16T15:26:37;99938.78;;;28.99;62.60
28310;BME280;15571;50.974;13.936;2023-07-16T15:29:42;99947.78;;;28.67;65.13
28310;BME280;15571;50.974;13.936;2023-07-16T15:32:44;99937.38;;;28.74;70.01
28310;BME280;15571;50.974;13.936;2023-07-16T15:35:47;99937.25;;;28.64;64.43
28310;BME280;15571;50.974;13.936;2023-07-16T15:38:49;99935.84;;;28.60;64.24
28310;BME280;15571;50.974;13.936;2023-07-16T15:41:53;99937.06;;;28.56;67.48
28310;BME280;15571;50.974;13.936;2023-07-16T15:44:55;99931.25;;;28.51;62.53
28310;BME280;15571;50.974;13.936;2023-07-16T15:47:58;99943.41;;;28.45;63.45
28310;BME280;15571;50.974;13.936;2023-07-16T15:51:01;99937.00;;;28.46;63.98
28310;BME280;15571;50.974;13.936;2023-07-16T15:54:05;99937.19;;;28.33;62.50
28310;BME280;15571;50.974;13.936;2023-07-16T15:57:09;99937.47;;;28.30;62.96
28310;BME280;15571;50.974;13.936;2023-07-16T16:00:12;99931.31;;;28.39;60.71
28310;BME280;15571;50.974;13.936;2023-07-16T16:03:15;99939.19;;;28.31;59.67
28310;BME280;15571;50.974;13.936;2023-07-16T16:06:22;99933.19;;;28.27;57.37
28310;BME280;15571;50.974;13.936;2023-07-16T16:09:24;99945.31;;;28.22;58.67
28310;BME280;15571;50.974;13.936;2023-07-16T16:12:26;99937.03;;;28.14;57.99
28310;BME280;15571;50.974;13.936;2023-07-16T16:15:31;99940.03;;;28.10;58.86
28310;BME280;15571;50.974;13.936;2023-07-16T16:18:37;99935.00;;;28.06;60.99